createdAt,value
2023-05-07T00:00:35.531Z,7.40
2023-05-07T00:01:55.238Z,7.10
2023-05-07T00:02:58.461Z,7.30
2023-05-07T00:04:01.762Z,6.70
2023-05-07T00:05:05.266Z,6.70
2023-05-07T00:06:08.217Z,7.30
2023-05-07T00:07:11.614Z,6.40
2023-05-07T00:08:14.623Z,6.70
2023-05-07T00:09:17.687Z,7.10
2023-05-07T00:10:20.873Z,6.40
2023-05-07T00:11:23.941Z,7.40
2023-05-07T00:12:26.862Z,7.00
2023-05-07T00:13:31.798Z,7.00
2023-05-07T00:14:34.676Z,6.80
2023-05-07T00:15:37.510Z,6.90
2023-05-07T00:16:40.402Z,6.60
2023-05-07T00:17:43.288Z,7.10
2023-05-07T00:18:47.265Z,7.00
2023-05-07T00:19:50.133Z,6.30
2023-05-07T00:20:52.950Z,6.50
2023-05-07T00:21:56.923Z,6.70
2023-05-07T00:22:59.709Z,7.20
2023-05-07T00:24:02.588Z,7.20
2023-05-07T00:25:06.896Z,6.30
2023-05-07T00:26:09.926Z,6.20
2023-05-07T00:27:12.868Z,6.50
2023-05-07T00:28:15.766Z,6.30
2023-05-07T00:29:18.923Z,6.50
2023-05-07T00:30:21.749Z,6.20
2023-05-07T00:31:24.974Z,6.30
2023-05-07T00:32:27.937Z,6.10
2023-05-07T00:33:30.983Z,6.50
2023-05-07T00:34:33.939Z,6.50
2023-05-07T00:35:37.124Z,6.20
2023-05-07T00:36:39.923Z,6.10
2023-05-07T00:37:42.809Z,6.60
2023-05-07T00:38:45.699Z,6.40
2023-05-07T00:39:48.532Z,6.30
2023-05-07T00:40:52.553Z,6.70
2023-05-07T00:41:55.653Z,6.70
2023-05-07T00:42:59.694Z,6.50
2023-05-07T00:44:03.655Z,6.50
2023-05-07T00:45:07.539Z,6.30
2023-05-07T00:46:11.285Z,6.20
2023-05-07T00:47:15.535Z,6.40
2023-05-07T00:48:19.610Z,6.00
2023-05-07T00:49:22.898Z,7.20
2023-05-07T00:50:27.758Z,7.00
2023-05-07T00:51:31.202Z,6.70
2023-05-07T00:52:34.323Z,7.20
2023-05-07T00:53:37.343Z,6.40
2023-05-07T00:54:42.295Z,6.60
2023-05-07T00:55:45.474Z,6.60
2023-05-07T00:56:48.898Z,6.10
2023-05-07T00:57:52.165Z,6.70
2023-05-07T00:58:55.999Z,6.60
2023-05-07T00:59:58.955Z,6.50
2023-05-07T01:01:01.963Z,6.50
2023-05-07T01:02:05.204Z,6.40
2023-05-07T01:03:08.498Z,6.80
2023-05-07T01:04:12.041Z,6.50
2023-05-07T01:05:17.520Z,6.70
2023-05-07T01:06:22.614Z,6.30
2023-05-07T01:07:25.962Z,6.90
2023-05-07T01:08:30.650Z,6.70
2023-05-07T01:09:33.970Z,6.60
2023-05-07T01:10:36.942Z,7.10
2023-05-07T01:11:41.614Z,6.10
2023-05-07T01:12:46.907Z,6.60
2023-05-07T01:13:51.816Z,5.80
2023-05-07T01:14:55.186Z,6.70
2023-05-07T01:15:57.990Z,5.80
2023-05-07T01:17:01.157Z,5.80
2023-05-07T01:18:04.187Z,6.20
2023-05-07T01:19:12.158Z,6.80
2023-05-07T01:20:15.423Z,6.50
2023-05-07T01:21:19.285Z,6.40
2023-05-07T01:22:33.049Z,6.10
2023-05-07T01:23:36.862Z,6.10
2023-05-07T01:24:39.742Z,6.00
2023-05-07T01:25:43.274Z,6.30
2023-05-07T01:26:46.337Z,6.20
2023-05-07T01:27:50.809Z,6.70
2023-05-07T01:28:53.726Z,5.90
2023-05-07T01:29:56.837Z,6.30
2023-05-07T01:33:09.337Z,6.30
2023-05-07T01:34:14.278Z,6.20
2023-05-07T01:35:21.397Z,7.20
2023-05-07T01:36:27.011Z,6.50
2023-05-07T01:37:30.479Z,6.40
2023-05-07T01:38:34.238Z,6.80
2023-05-07T01:39:39.073Z,7.80
2023-05-07T01:40:43.029Z,7.20
2023-05-07T01:41:46.657Z,7.60
2023-05-07T01:42:49.707Z,7.70
2023-05-07T01:43:54.806Z,7.70
2023-05-07T01:44:57.658Z,8.10
2023-05-07T01:46:02.439Z,7.30
2023-05-07T01:47:06.243Z,8.10
2023-05-07T01:48:13.925Z,7.80
2023-05-07T01:49:17.974Z,7.80
2023-05-07T01:50:22.077Z,8.30
2023-05-07T01:51:28.110Z,7.60
2023-05-07T01:52:32.399Z,7.90
2023-05-07T01:53:39.214Z,7.40
2023-05-07T01:54:42.851Z,8.20
2023-05-07T01:55:46.289Z,7.70
2023-05-07T01:56:49.999Z,7.10
2023-05-07T01:57:53.227Z,8.00
2023-05-07T01:58:56.148Z,8.10
2023-05-07T01:59:59.160Z,8.10
2023-05-07T02:01:02.064Z,8.10
2023-05-07T02:02:05.594Z,8.30
2023-05-07T02:03:09.793Z,8.40
2023-05-07T02:04:21.497Z,8.30
2023-05-07T02:05:24.779Z,8.20
2023-05-07T02:06:38.368Z,7.80
2023-05-07T02:07:42.531Z,8.10
2023-05-07T02:08:45.755Z,8.20
2023-05-07T02:09:49.675Z,8.00
2023-05-07T02:10:53.001Z,8.10
2023-05-07T02:11:56.203Z,8.50
2023-05-07T02:13:00.771Z,8.00
2023-05-07T02:14:03.728Z,8.40
2023-05-07T02:15:07.278Z,7.80
2023-05-07T02:16:11.835Z,7.70
2023-05-07T02:17:15.419Z,8.50
2023-05-07T02:18:18.883Z,8.00
2023-05-07T02:19:22.231Z,8.10
2023-05-07T02:20:25.594Z,8.50
2023-05-07T02:21:31.044Z,7.60
2023-05-07T02:22:35.721Z,8.10
2023-05-07T02:23:38.784Z,7.80
2023-05-07T02:24:41.750Z,8.50
2023-05-07T02:25:44.868Z,8.10
2023-05-07T02:26:48.042Z,8.10
2023-05-07T02:27:50.965Z,8.50
2023-05-07T02:28:54.953Z,8.40
2023-05-07T02:29:58.290Z,7.90
2023-05-07T02:31:01.815Z,7.80
2023-05-07T02:32:05.220Z,8.40
2023-05-07T02:33:09.600Z,8.00
2023-05-07T02:34:13.150Z,7.80
2023-05-07T02:35:16.236Z,8.10
2023-05-07T02:36:19.382Z,8.40
2023-05-07T02:37:28.348Z,8.90
2023-05-07T02:38:31.306Z,8.10
2023-05-07T02:39:34.454Z,8.70
2023-05-07T02:40:40.380Z,8.60
2023-05-07T02:41:43.350Z,7.80
2023-05-07T02:42:46.237Z,8.90
2023-05-07T02:43:49.559Z,7.80
2023-05-07T02:44:53.053Z,8.30
2023-05-07T02:46:06.510Z,8.10
2023-05-07T02:47:11.400Z,8.20
2023-05-07T02:48:14.761Z,7.40
2023-05-07T02:49:17.648Z,8.00
2023-05-07T02:50:20.778Z,7.80
2023-05-07T02:51:25.959Z,7.90
2023-05-07T02:52:29.450Z,8.70
2023-05-07T02:53:32.651Z,8.60
2023-05-07T02:54:35.555Z,8.70
2023-05-07T02:55:38.524Z,8.00
2023-05-07T02:56:41.485Z,7.30
2023-05-07T02:57:44.352Z,8.30
2023-05-07T02:58:47.740Z,8.20
2023-05-07T02:59:51.783Z,7.60
2023-05-07T03:00:58.406Z,8.90
2023-05-07T03:02:08.943Z,8.10
2023-05-07T03:03:11.967Z,8.50
2023-05-07T03:04:15.147Z,8.20
2023-05-07T03:05:18.355Z,8.50
2023-05-07T03:06:21.217Z,8.40
2023-05-07T03:07:24.165Z,8.30
2023-05-07T03:08:27.062Z,8.40
2023-05-07T03:09:30.145Z,7.70
2023-05-07T03:10:33.066Z,8.40
2023-05-07T03:11:36.814Z,8.20
2023-05-07T03:12:39.820Z,7.50
2023-05-07T03:13:42.656Z,8.70
2023-05-07T03:14:45.721Z,7.80
2023-05-07T03:15:48.578Z,8.80
2023-05-07T03:16:51.560Z,8.20
2023-05-07T03:17:54.517Z,8.30
2023-05-07T03:18:57.829Z,7.80
2023-05-07T03:20:01.281Z,8.40
2023-05-07T03:21:05.164Z,8.40
2023-05-07T03:22:08.178Z,8.40
2023-05-07T03:23:11.128Z,8.10
2023-05-07T03:24:14.076Z,7.70
2023-05-07T03:25:17.058Z,9.50
2023-05-07T03:26:19.979Z,9.00
2023-05-07T03:27:23.151Z,8.10
2023-05-07T03:28:27.968Z,8.20
2023-05-07T03:29:34.573Z,8.10
2023-05-07T03:30:37.635Z,8.80
2023-05-07T03:31:40.627Z,8.70
2023-05-07T03:32:44.724Z,8.20
2023-05-07T03:33:58.628Z,8.60
2023-05-07T03:35:03.569Z,7.90
2023-05-07T03:36:15.587Z,8.20
2023-05-07T03:37:19.327Z,8.20
2023-05-07T03:38:22.230Z,8.50
2023-05-07T03:39:25.371Z,8.20
2023-05-07T03:40:28.340Z,8.30
2023-05-07T03:41:33.704Z,8.30
2023-05-07T03:42:37.075Z,8.10
2023-05-07T03:43:40.076Z,7.90
2023-05-07T03:44:44.751Z,8.30
2023-05-07T03:45:47.762Z,8.50
2023-05-07T03:46:56.237Z,7.80
2023-05-07T03:47:59.346Z,8.20
2023-05-07T03:49:02.387Z,7.80
2023-05-07T03:50:06.246Z,7.70
2023-05-07T03:51:09.190Z,7.40
2023-05-07T03:52:13.195Z,7.90
2023-05-07T03:53:16.284Z,7.90
2023-05-07T03:54:19.477Z,8.40
2023-05-07T03:55:22.998Z,8.10
2023-05-07T03:56:29.222Z,8.70
2023-05-07T03:57:33.329Z,8.10
2023-05-07T03:58:36.350Z,8.10
2023-05-07T03:59:43.493Z,7.60
2023-05-07T04:00:46.798Z,7.30
2023-05-07T04:01:56.877Z,8.10
2023-05-07T04:03:00.607Z,8.10
2023-05-07T04:04:06.581Z,7.80
2023-05-07T04:05:10.915Z,7.90
2023-05-07T04:06:14.722Z,8.10
2023-05-07T04:07:19.695Z,8.90
2023-05-07T04:08:25.522Z,7.10
2023-05-07T04:09:30.314Z,7.30
2023-05-07T04:10:33.634Z,7.60
2023-05-07T04:11:41.133Z,8.00
2023-05-07T04:12:46.195Z,8.10
2023-05-07T04:13:52.620Z,7.20
2023-05-07T04:14:57.310Z,7.60
2023-05-07T04:16:02.953Z,7.30
2023-05-07T04:17:08.211Z,7.20
2023-05-07T04:18:11.301Z,7.40
2023-05-07T04:19:14.553Z,7.40
2023-05-07T04:20:18.688Z,7.40
2023-05-07T04:21:24.632Z,6.70
2023-05-07T04:22:27.875Z,8.10
2023-05-07T04:23:31.702Z,7.00
2023-05-07T04:24:36.894Z,8.10
2023-05-07T04:25:40.330Z,6.90
2023-05-07T04:26:47.329Z,7.60
2023-05-07T04:27:51.680Z,7.80
2023-05-07T04:28:54.696Z,6.80
2023-05-07T04:29:57.724Z,7.60
2023-05-07T04:31:01.594Z,7.40
2023-05-07T04:32:05.323Z,7.00
2023-05-07T04:33:08.712Z,7.30
2023-05-07T04:34:12.658Z,7.30
2023-05-07T04:35:15.815Z,7.40
2023-05-07T04:36:19.105Z,7.60
2023-05-07T04:37:29.457Z,8.00
2023-05-07T04:38:32.859Z,7.60
2023-05-07T04:39:36.459Z,7.20
2023-05-07T04:40:40.250Z,6.90
2023-05-07T04:41:43.646Z,7.40
2023-05-07T04:42:46.716Z,7.40
2023-05-07T04:43:50.635Z,7.60
2023-05-07T04:44:54.391Z,7.80
2023-05-07T04:45:57.791Z,7.30
2023-05-07T04:47:01.750Z,7.30
2023-05-07T04:48:05.427Z,7.40
2023-05-07T04:49:08.877Z,7.30
2023-05-07T04:50:12.166Z,7.50
2023-05-07T04:51:16.321Z,7.30
2023-05-07T04:52:19.228Z,7.50
2023-05-07T04:53:22.851Z,7.00
2023-05-07T04:54:26.424Z,7.00
2023-05-07T04:55:29.541Z,7.30
2023-05-07T04:56:32.636Z,7.50
2023-05-07T04:57:35.926Z,7.80
2023-05-07T04:58:39.101Z,7.60
2023-05-07T04:59:42.022Z,7.50
2023-05-07T05:00:44.939Z,7.50
2023-05-07T05:01:48.129Z,7.10
2023-05-07T05:02:51.391Z,6.90
2023-05-07T05:03:56.131Z,6.60
2023-05-07T05:05:00.122Z,6.20
2023-05-07T05:06:03.009Z,6.60
2023-05-07T05:07:08.640Z,6.60
2023-05-07T05:08:11.639Z,7.20
2023-05-07T05:09:16.225Z,7.20
2023-05-07T05:10:19.524Z,6.70
2023-05-07T05:11:22.673Z,6.60
2023-05-07T05:12:26.442Z,6.80
2023-05-07T05:13:29.632Z,7.30
2023-05-07T05:14:32.490Z,6.40
2023-05-07T05:15:35.670Z,6.20
2023-05-07T05:16:38.925Z,6.20
2023-05-07T05:17:42.253Z,5.90
2023-05-07T05:18:45.241Z,6.40
2023-05-07T05:19:49.115Z,5.90
2023-05-07T05:20:52.933Z,5.60
2023-05-07T05:21:56.181Z,6.00
2023-05-07T05:22:59.417Z,5.70
2023-05-07T05:24:02.277Z,5.90
2023-05-07T05:25:05.718Z,5.80
2023-05-07T05:26:08.880Z,5.50
2023-05-07T05:27:12.275Z,5.50
2023-05-07T05:28:15.243Z,5.50
2023-05-07T05:29:18.104Z,5.00
2023-05-07T05:30:23.191Z,5.10
2023-05-07T05:31:26.754Z,5.10
2023-05-07T05:32:29.596Z,5.20
2023-05-07T05:33:33.508Z,5.40
2023-05-07T05:34:39.468Z,5.20
2023-05-07T05:35:43.275Z,5.40
2023-05-07T05:36:48.164Z,4.90
2023-05-07T05:37:51.896Z,5.20
2023-05-07T05:38:55.166Z,4.90
2023-05-07T05:39:58.528Z,6.10
2023-05-07T05:41:02.597Z,6.60
2023-05-07T05:42:06.271Z,6.60
2023-05-07T05:43:10.964Z,6.10
2023-05-07T05:44:14.189Z,5.00
2023-05-07T05:45:18.690Z,5.20
2023-05-07T05:46:21.859Z,5.60
2023-05-07T05:47:26.967Z,5.20
2023-05-07T05:48:31.878Z,5.00
2023-05-07T05:49:36.426Z,4.90
2023-05-07T05:50:40.456Z,4.90
2023-05-07T05:51:44.739Z,5.00
2023-05-07T05:52:47.615Z,5.00
2023-05-07T05:53:50.947Z,5.00
2023-05-07T05:54:54.825Z,4.90
2023-05-07T05:55:57.842Z,5.40
2023-05-07T05:57:01.268Z,5.70
2023-05-07T05:58:04.293Z,5.80
2023-05-07T05:59:08.703Z,5.30
2023-05-07T06:00:12.406Z,5.70
2023-05-07T06:01:21.472Z,5.30
2023-05-07T06:02:25.413Z,4.40
2023-05-07T06:03:28.864Z,5.40
2023-05-07T06:04:32.364Z,5.10
2023-05-07T06:05:35.398Z,5.20
2023-05-07T06:06:38.619Z,5.20
2023-05-07T06:07:41.905Z,5.50
2023-05-07T06:08:44.794Z,5.20
2023-05-07T06:09:48.768Z,5.50
2023-05-07T06:10:52.142Z,5.90
2023-05-07T06:11:55.382Z,4.80
2023-05-07T06:12:58.746Z,9.10
2023-05-07T06:14:01.800Z,6.00
2023-05-07T06:15:05.603Z,4.80
2023-05-07T06:16:08.614Z,6.00
2023-05-07T06:17:11.825Z,5.20
2023-05-07T06:18:15.341Z,4.80
2023-05-07T06:19:23.983Z,4.40
2023-05-07T06:20:27.357Z,4.20
2023-05-07T06:21:31.428Z,4.80
2023-05-07T06:22:34.586Z,4.50
2023-05-07T06:23:37.727Z,4.60
2023-05-07T06:24:40.965Z,4.80
2023-05-07T06:25:50.974Z,4.10
2023-05-07T06:26:54.997Z,4.10
2023-05-07T06:27:58.177Z,4.30
2023-05-07T06:29:01.476Z,4.50
2023-05-07T06:30:05.159Z,4.20
2023-05-07T06:31:21.638Z,4.40
2023-05-07T06:32:31.434Z,4.30
2023-05-07T06:33:36.364Z,4.00
2023-05-07T06:34:40.932Z,4.10
2023-05-07T06:35:44.209Z,4.10
2023-05-07T06:36:47.200Z,4.30
2023-05-07T06:38:01.349Z,4.50
2023-05-07T06:39:05.369Z,4.60
2023-05-07T06:40:09.109Z,4.30
2023-05-07T06:41:16.243Z,4.60
2023-05-07T06:42:19.527Z,4.20
2023-05-07T06:43:24.092Z,4.80
2023-05-07T06:44:58.940Z,4.50
2023-05-07T06:46:02.687Z,4.40
2023-05-07T06:47:06.373Z,4.70
2023-05-07T06:48:09.892Z,4.20
2023-05-07T06:49:21.080Z,4.60
2023-05-07T06:50:25.071Z,4.10
2023-05-07T06:51:29.518Z,4.40
2023-05-07T06:52:33.734Z,4.40
2023-05-07T06:53:36.938Z,4.60
2023-05-07T06:54:40.575Z,4.60
2023-05-07T06:55:44.206Z,4.90
2023-05-07T06:56:48.099Z,4.50
2023-05-07T06:57:51.156Z,4.80
2023-05-07T06:58:54.857Z,4.40
2023-05-07T06:59:58.120Z,4.00
2023-05-07T07:01:01.183Z,4.30
2023-05-07T07:02:04.567Z,4.40
2023-05-07T07:03:08.116Z,4.50
2023-05-07T07:04:11.609Z,4.10
2023-05-07T07:05:14.840Z,4.00
2023-05-07T07:06:17.801Z,4.40
2023-05-07T07:07:20.863Z,4.30
2023-05-07T07:08:23.796Z,4.60
2023-05-07T07:09:27.382Z,4.70
2023-05-07T07:10:30.753Z,4.40
2023-05-07T07:11:33.722Z,4.20
2023-05-07T07:12:36.974Z,4.40
2023-05-07T07:13:41.156Z,4.10
2023-05-07T07:14:44.474Z,4.40
2023-05-07T07:15:47.714Z,4.00
2023-05-07T07:16:50.751Z,4.30
2023-05-07T07:17:54.359Z,3.80
2023-05-07T07:18:59.131Z,4.40
2023-05-07T07:20:02.290Z,4.50
2023-05-07T07:21:06.660Z,4.20
2023-05-07T07:22:10.034Z,4.30
2023-05-07T07:23:13.095Z,4.20
2023-05-07T07:24:22.516Z,4.40
2023-05-07T07:25:29.486Z,3.60
2023-05-07T07:26:32.438Z,4.10
2023-05-07T07:27:35.477Z,4.20
2023-05-07T07:28:48.040Z,4.40
2023-05-07T07:29:53.944Z,7.50
2023-05-07T07:30:56.800Z,8.80
2023-05-07T07:31:59.827Z,5.00
2023-05-07T07:33:04.303Z,4.60
2023-05-07T07:34:09.145Z,4.10
2023-05-07T07:35:12.033Z,4.20
2023-05-07T07:36:15.163Z,3.80
2023-05-07T07:37:18.538Z,4.10
2023-05-07T07:38:21.347Z,4.30
2023-05-07T07:39:24.326Z,4.40
2023-05-07T07:40:28.844Z,4.30
2023-05-07T07:41:31.654Z,4.00
2023-05-07T07:42:34.685Z,4.40
2023-05-07T07:43:37.911Z,4.10
2023-05-07T07:44:40.975Z,4.50
2023-05-07T07:45:45.239Z,4.50
2023-05-07T07:46:48.258Z,4.20
2023-05-07T07:47:51.568Z,4.40
2023-05-07T07:48:55.198Z,4.90
2023-05-07T07:49:58.452Z,4.00
2023-05-07T07:51:01.608Z,3.80
2023-05-07T07:52:05.178Z,4.20
2023-05-07T07:53:08.911Z,3.90
2023-05-07T07:54:11.921Z,3.70
2023-05-07T07:55:19.012Z,4.10
2023-05-07T07:56:22.281Z,3.40
2023-05-07T07:57:25.653Z,4.00
2023-05-07T07:58:28.777Z,4.10
2023-05-07T07:59:32.218Z,3.70
2023-05-07T08:00:35.479Z,4.90
2023-05-07T08:01:38.707Z,3.60
2023-05-07T08:02:42.166Z,4.00
2023-05-07T08:03:45.790Z,3.90
2023-05-07T08:04:49.042Z,4.30
2023-05-07T08:05:52.248Z,3.80
2023-05-07T08:06:55.442Z,4.00
2023-05-07T08:07:59.551Z,3.80
2023-05-07T08:09:05.733Z,3.80
2023-05-07T08:10:09.491Z,3.80
2023-05-07T08:11:12.917Z,4.00
2023-05-07T08:12:16.574Z,3.90
2023-05-07T08:13:19.865Z,3.90
2023-05-07T08:14:23.519Z,4.10
2023-05-07T08:15:26.698Z,3.60
2023-05-07T08:16:31.150Z,3.70
2023-05-07T08:17:34.710Z,3.60
2023-05-07T08:18:38.389Z,4.00
2023-05-07T08:19:41.659Z,4.00
2023-05-07T08:20:45.529Z,3.80
2023-05-07T08:21:51.908Z,3.90
2023-05-07T08:22:55.169Z,4.00
2023-05-07T08:23:58.434Z,3.80
2023-05-07T08:25:01.524Z,3.40
2023-05-07T08:26:05.328Z,3.80
2023-05-07T08:27:08.762Z,3.80
2023-05-07T08:28:12.123Z,4.60
2023-05-07T08:29:15.210Z,3.40
2023-05-07T08:30:18.745Z,4.00
2023-05-07T08:31:21.776Z,3.80
2023-05-07T08:32:25.103Z,3.30
2023-05-07T08:33:28.584Z,3.40
2023-05-07T08:34:31.657Z,3.60
2023-05-07T08:35:35.668Z,3.90
2023-05-07T08:36:38.807Z,4.20
2023-05-07T08:37:41.674Z,4.50
2023-05-07T08:38:46.779Z,4.50
2023-05-07T08:39:50.144Z,4.10
2023-05-07T08:40:56.832Z,7.50
2023-05-07T08:42:05.816Z,5.30
2023-05-07T08:43:15.970Z,4.00
2023-05-07T08:44:23.538Z,3.70
2023-05-07T08:45:29.132Z,3.80
2023-05-07T08:46:33.661Z,3.60
2023-05-07T08:47:45.550Z,3.50
2023-05-07T08:48:53.193Z,3.80
2023-05-07T08:49:56.414Z,3.60
2023-05-07T08:51:00.427Z,3.60
2023-05-07T08:52:03.707Z,3.40
2023-05-07T08:53:06.966Z,3.90
2023-05-07T08:54:11.719Z,3.70
2023-05-07T08:55:16.239Z,3.50
2023-05-07T08:56:22.542Z,3.80
2023-05-07T08:57:25.853Z,3.60
2023-05-07T08:58:29.289Z,4.00
2023-05-07T08:59:32.871Z,3.40
2023-05-07T09:00:37.547Z,3.20
2023-05-07T09:01:40.845Z,3.80
2023-05-07T09:02:43.935Z,3.60
2023-05-07T09:03:48.044Z,3.50
2023-05-07T09:04:52.009Z,3.40
2023-05-07T09:05:55.014Z,3.60
2023-05-07T09:07:04.714Z,3.30
2023-05-07T09:08:08.660Z,3.80
2023-05-07T09:09:15.797Z,3.70
2023-05-07T09:10:18.872Z,4.60
2023-05-07T09:11:26.111Z,4.10
2023-05-07T09:12:30.325Z,6.20
2023-05-07T09:13:33.277Z,7.60
2023-05-07T09:14:37.131Z,7.20
2023-05-07T09:15:40.587Z,3.90
2023-05-07T09:16:44.082Z,3.50
2023-05-07T09:17:46.955Z,3.40
2023-05-07T09:18:53.145Z,3.80
2023-05-07T09:19:56.462Z,3.20
2023-05-07T09:20:59.214Z,3.10
2023-05-07T09:22:03.745Z,3.50
2023-05-07T09:23:11.790Z,3.20
2023-05-07T09:24:17.013Z,3.20
2023-05-07T09:25:30.188Z,3.20
2023-05-07T09:26:34.944Z,3.30
2023-05-07T09:27:38.538Z,3.50
2023-05-07T09:28:45.422Z,3.40
2023-05-07T09:29:48.885Z,3.20
2023-05-07T09:30:52.099Z,5.00
2023-05-07T09:31:56.106Z,3.50
2023-05-07T09:33:00.702Z,3.40
2023-05-07T09:34:05.868Z,3.60
2023-05-07T09:35:17.977Z,3.40
2023-05-07T09:36:22.829Z,3.30
2023-05-07T09:37:27.959Z,3.40
2023-05-07T09:38:31.248Z,3.70
2023-05-07T09:39:44.440Z,3.60
2023-05-07T09:40:47.311Z,3.30
2023-05-07T09:41:52.235Z,3.20
2023-05-07T09:43:12.915Z,3.50
2023-05-07T09:44:18.773Z,2.60
2023-05-07T09:45:29.313Z,3.30
2023-05-07T09:46:35.960Z,3.10
2023-05-07T09:47:45.833Z,3.20
2023-05-07T09:48:49.845Z,3.00
2023-05-07T09:49:57.697Z,3.00
2023-05-07T09:51:03.635Z,2.70
2023-05-07T09:52:09.817Z,2.90
2023-05-07T09:53:15.846Z,2.90
2023-05-07T09:54:19.819Z,2.80
2023-05-07T09:55:25.440Z,3.30
2023-05-07T09:56:30.342Z,3.20
2023-05-07T09:57:35.825Z,3.50
2023-05-07T09:58:44.416Z,3.50
2023-05-07T09:59:48.453Z,3.10
2023-05-07T10:00:58.018Z,2.80
2023-05-07T10:02:04.841Z,2.90
2023-05-07T10:03:21.880Z,3.20
2023-05-07T10:04:46.276Z,3.20
2023-05-07T10:05:53.919Z,3.10
2023-05-07T10:07:17.938Z,3.10
2023-05-07T10:08:36.139Z,3.60
2023-05-07T10:09:48.851Z,3.50
2023-05-07T10:11:32.899Z,4.00
2023-05-07T10:12:41.517Z,3.30
2023-05-07T10:13:51.046Z,3.40
2023-05-07T10:14:57.598Z,3.60
2023-05-07T10:16:02.279Z,3.70
2023-05-07T10:17:09.434Z,4.10
2023-05-07T10:18:13.434Z,5.60
2023-05-07T10:19:18.030Z,4.70
2023-05-07T10:20:22.164Z,3.70
2023-05-07T10:21:28.034Z,3.70
2023-05-07T10:22:40.957Z,3.50
2023-05-07T10:23:51.098Z,3.70
2023-05-07T10:24:55.709Z,3.50
2023-05-07T10:26:01.390Z,4.30
2023-05-07T10:27:10.858Z,4.00
2023-05-07T10:28:14.456Z,3.80
2023-05-07T10:29:38.252Z,4.30
2023-05-07T10:30:57.625Z,4.00
2023-05-07T10:32:25.197Z,4.00
2023-05-07T10:33:43.014Z,3.90
2023-05-07T10:34:50.053Z,4.30
2023-05-07T10:35:59.384Z,4.20
2023-05-07T10:37:03.807Z,4.50
2023-05-07T10:38:07.558Z,4.70
2023-05-07T10:39:12.278Z,5.40
2023-05-07T10:40:15.468Z,5.10
2023-05-07T10:41:19.787Z,5.30
2023-05-07T10:42:22.938Z,5.20
2023-05-07T10:43:43.134Z,5.10
2023-05-07T10:44:46.877Z,5.00
2023-05-07T10:46:17.343Z,5.20
2023-05-07T10:47:25.448Z,5.10
2023-05-07T10:48:31.477Z,5.50
2023-05-07T10:49:47.409Z,4.80
2023-05-07T10:51:24.126Z,4.40
2023-05-07T10:52:36.182Z,4.50
2023-05-07T10:54:21.413Z,3.90
2023-05-07T10:55:31.527Z,4.10
2023-05-07T10:56:44.815Z,4.50
2023-05-07T10:57:54.880Z,4.20
2023-05-07T10:59:31.672Z,4.10
2023-05-07T11:00:39.255Z,4.10
2023-05-07T11:01:55.363Z,4.00
2023-05-07T11:03:13.276Z,3.90
2023-05-07T11:04:27.237Z,4.30
2023-05-07T11:05:40.316Z,4.30
2023-05-07T11:07:07.259Z,4.60
2023-05-07T11:08:11.458Z,4.10
2023-05-07T11:09:25.232Z,4.70
2023-05-07T11:10:50.867Z,4.80
2023-05-07T11:12:13.937Z,4.10
2023-05-07T11:13:46.247Z,3.90
2023-05-07T11:15:29.874Z,4.60
2023-05-07T11:16:34.554Z,4.50
2023-05-07T11:17:55.815Z,4.30
2023-05-07T11:18:59.116Z,4.50
2023-05-07T11:20:10.700Z,3.90
2023-05-07T11:21:40.957Z,4.40
2023-05-07T11:23:36.024Z,3.90
2023-05-07T11:24:51.280Z,7.50
2023-05-07T11:26:00.522Z,9.50
2023-05-07T11:27:04.012Z,4.80
2023-05-07T11:28:11.512Z,4.60
2023-05-07T11:29:23.382Z,3.80
2023-05-07T11:30:30.544Z,3.80
2023-05-07T11:31:33.510Z,4.20
2023-05-07T11:32:37.230Z,4.00
2023-05-07T11:33:40.596Z,4.00
2023-05-07T11:34:46.362Z,3.90
2023-05-07T11:35:49.597Z,3.90
2023-05-07T11:36:53.912Z,4.40
2023-05-07T11:38:01.952Z,3.90
2023-05-07T11:39:06.638Z,3.60
2023-05-07T11:40:12.024Z,4.30
2023-05-07T11:41:15.080Z,3.90
2023-05-07T11:42:31.646Z,4.10
2023-05-07T11:43:36.768Z,3.60
2023-05-07T11:44:47.298Z,3.60
2023-05-07T11:45:51.876Z,3.60
2023-05-07T11:46:54.815Z,3.70
2023-05-07T11:47:57.943Z,3.30
2023-05-07T11:49:01.790Z,3.20
2023-05-07T11:50:06.946Z,3.10
2023-05-07T11:51:10.086Z,3.70
2023-05-07T11:52:14.447Z,3.80
2023-05-07T11:53:18.269Z,3.70
2023-05-07T11:54:22.462Z,3.70
2023-05-07T11:55:25.838Z,3.50
2023-05-07T11:56:28.678Z,3.70
2023-05-07T11:57:33.540Z,3.80
2023-05-07T11:58:37.208Z,3.60
2023-05-07T11:59:45.455Z,4.20
2023-05-07T12:00:53.205Z,4.10
2023-05-07T12:02:00.310Z,3.60
2023-05-07T12:03:06.455Z,3.60
2023-05-07T12:04:09.695Z,3.80
2023-05-07T12:05:13.676Z,3.50
2023-05-07T12:06:17.867Z,6.30
2023-05-07T12:07:20.770Z,4.10
2023-05-07T12:08:23.540Z,3.60
2023-05-07T12:09:26.966Z,4.00
2023-05-07T12:10:30.085Z,3.90
2023-05-07T12:11:32.858Z,4.10
2023-05-07T12:12:43.220Z,4.10
2023-05-07T12:13:46.735Z,4.00
2023-05-07T12:14:49.744Z,3.80
2023-05-07T12:15:54.248Z,4.10
2023-05-07T12:16:57.364Z,3.80
2023-05-07T12:18:00.548Z,3.40
2023-05-07T12:19:03.496Z,3.70
2023-05-07T12:20:07.577Z,3.90
2023-05-07T12:21:11.160Z,3.90
2023-05-07T12:22:14.172Z,4.20
2023-05-07T12:23:17.477Z,3.80
2023-05-07T12:24:21.951Z,4.10
2023-05-07T12:25:25.011Z,4.10
2023-05-07T12:26:28.047Z,3.90
2023-05-07T12:27:31.653Z,3.70
2023-05-07T12:28:39.889Z,3.90
2023-05-07T12:29:49.726Z,3.60
2023-05-07T12:30:53.272Z,3.80
2023-05-07T12:31:56.353Z,4.50
2023-05-07T12:32:59.186Z,4.10
2023-05-07T12:34:03.531Z,3.90
2023-05-07T12:35:07.595Z,4.00
2023-05-07T12:36:13.874Z,3.50
2023-05-07T12:37:17.214Z,3.50
2023-05-07T12:38:20.415Z,4.10
2023-05-07T12:39:23.336Z,4.00
2023-05-07T12:40:36.444Z,3.70
2023-05-07T12:41:55.729Z,3.80
2023-05-07T12:43:00.875Z,3.80
2023-05-07T12:44:05.592Z,4.00
2023-05-07T12:45:18.419Z,3.90
2023-05-07T12:46:21.583Z,3.70
2023-05-07T12:47:24.525Z,4.20
2023-05-07T12:48:30.980Z,4.00
2023-05-07T12:49:38.820Z,3.60
2023-05-07T12:50:42.283Z,3.60
2023-05-07T12:51:45.398Z,3.60
2023-05-07T12:52:49.243Z,3.70
2023-05-07T12:53:57.397Z,4.60
2023-05-07T12:55:07.700Z,3.00
2023-05-07T12:56:11.007Z,3.60
2023-05-07T12:57:13.935Z,3.40
2023-05-07T12:58:26.119Z,3.60
2023-05-07T12:59:39.596Z,3.60
2023-05-07T13:00:44.186Z,3.80
2023-05-07T13:01:47.133Z,3.60
2023-05-07T13:02:50.169Z,3.80
2023-05-07T13:03:53.566Z,3.90
2023-05-07T13:04:56.748Z,4.60
2023-05-07T13:06:01.841Z,3.90
2023-05-07T13:07:04.644Z,4.10
2023-05-07T13:08:07.586Z,4.00
2023-05-07T13:09:10.443Z,4.20
2023-05-07T13:10:13.503Z,3.80
2023-05-07T13:11:16.603Z,4.10
2023-05-07T13:12:19.491Z,4.10
2023-05-07T13:13:22.571Z,3.70
2023-05-07T13:14:25.795Z,3.90
2023-05-07T13:15:28.844Z,4.70
2023-05-07T13:16:31.806Z,4.50
2023-05-07T13:17:34.812Z,5.20
2023-05-07T13:18:39.833Z,4.50
2023-05-07T13:19:42.842Z,4.90
2023-05-07T13:20:45.989Z,3.80
2023-05-07T13:21:50.737Z,3.50
2023-05-07T13:22:53.613Z,3.20
2023-05-07T13:23:56.504Z,3.00
2023-05-07T13:24:59.416Z,3.80
2023-05-07T13:26:08.469Z,3.60
2023-05-07T13:27:17.933Z,3.60
2023-05-07T13:28:21.369Z,3.40
2023-05-07T13:29:30.992Z,3.50
2023-05-07T13:31:36.865Z,3.30
2023-05-07T13:32:39.959Z,3.10
2023-05-07T13:33:42.973Z,3.40
2023-05-07T13:34:45.862Z,2.80
2023-05-07T13:35:48.900Z,3.20
2023-05-07T13:36:52.350Z,3.40
2023-05-07T13:37:55.854Z,3.10
2023-05-07T13:39:00.570Z,3.40
2023-05-07T13:41:04.350Z,3.40
2023-05-07T13:42:07.934Z,3.40
2023-05-07T13:43:11.773Z,3.00
2023-05-07T13:44:15.239Z,3.30
2023-05-07T13:45:20.349Z,3.00
2023-05-07T13:46:23.851Z,2.90
2023-05-07T13:47:27.344Z,3.20
2023-05-07T13:48:30.695Z,3.30
2023-05-07T13:49:33.679Z,5.00
2023-05-07T13:50:36.760Z,3.10
2023-05-07T13:51:39.726Z,3.30
2023-05-07T13:52:46.448Z,2.90
2023-05-07T13:53:49.948Z,2.90
2023-05-07T13:54:53.482Z,3.00
2023-05-07T13:55:56.310Z,3.10
2023-05-07T13:56:59.221Z,2.80
2023-05-07T13:58:06.847Z,3.00
2023-05-07T13:59:10.371Z,3.30
2023-05-07T14:00:15.076Z,2.90
2023-05-07T14:01:18.050Z,2.90
2023-05-07T14:02:21.118Z,3.50
2023-05-07T14:03:24.501Z,3.20
2023-05-07T14:04:27.426Z,3.20
2023-05-07T14:05:30.508Z,3.30
2023-05-07T14:06:33.484Z,3.10
2023-05-07T14:07:36.983Z,3.00
2023-05-07T14:08:39.904Z,3.70
2023-05-07T14:09:42.768Z,3.60
2023-05-07T14:10:45.972Z,3.40
2023-05-07T14:11:52.149Z,3.30
2023-05-07T14:12:55.474Z,3.20
2023-05-07T14:13:59.460Z,3.10
2023-05-07T14:15:02.398Z,3.30
2023-05-07T14:16:05.761Z,3.00
2023-05-07T14:17:09.596Z,3.00
2023-05-07T14:18:12.888Z,3.00
2023-05-07T14:19:16.057Z,2.90
2023-05-07T14:20:18.894Z,3.30
2023-05-07T14:21:21.999Z,3.20
2023-05-07T14:22:24.986Z,3.30
2023-05-07T14:23:28.271Z,3.10
2023-05-07T14:24:38.141Z,3.30
2023-05-07T14:25:44.264Z,3.80
2023-05-07T14:26:47.302Z,5.00
2023-05-07T14:27:50.115Z,3.30
2023-05-07T14:28:53.070Z,3.50
2023-05-07T14:29:56.173Z,3.40
2023-05-07T14:30:59.333Z,3.50
2023-05-07T14:32:04.112Z,3.10
2023-05-07T14:33:06.925Z,3.20